sensor_id;sensor_type;location;lat;lon;timestamp;pressure;altitude;pressure_sealevel;temperature;humidity
32131;BME280;18639;50.716;7.086;2023-04-10T00:01:26;101053.09;;;7.43;100.00
32131;BME280;18639;50.716;7.086;2023-04-10T00:03:52;101029.88;;;7.24;100.00
32131;BME280;18639;50.716;7.086;2023-04-10T00:06:17;101040.69;;;7.32;100.00
32131;BME280;18639;50.716;7.086;2023-04-10T00:08:42;101036.38;;;7.33;100.00
32131;BME280;18639;50.716;7.086;2023-04-10T00:11:07;101017.97;;;7.22;100.00
32131;BME280;18639;50.716;7.086;2023-04-10T00:13:33;101011.00;;;7.25;100.00
32131;BME280;18639;50.716;7.086;2023-04-10T00:15:58;101022.22;;;7.23;100.00
32131;BME280;18639;50.716;7.086;2023-04-10T00:18:23;101027.25;;;7.26;100.00
32131;BME280;18639;50.716;7.086;2023-04-10T00:20:49;101017.16;;;7.21;100.00
32131;BME280;18639;50.716;7.086;2023-04-10T00:23:14;101037.94;;;7.37;100.00
32131;BME280;18639;50.716;7.086;2023-04-10T00:25:39;100960.81;;;6.95;100.00
32131;BME280;18639;50.716;7.086;2023-04-10T00:28:04;101013.69;;;7.22;100.00
32131;BME280;18639;50.716;7.086;2023-04-10T00:30:31;101015.50;;;7.20;100.00
32131;BME280;18639;50.716;7.086;2023-04-10T00:32:57;101009.03;;;7.10;100.00
32131;BME280;18639;50.716;7.086;2023-04-10T00:35:22;100999.97;;;7.22;100.00
32131;BME280;18639;50.716;7.086;2023-04-10T00:37:47;101005.84;;;7.25;100.00
32131;BME280;18639;50.716;7.086;2023-04-10T00:40:14;101016.84;;;7.29;100.00
32131;BME280;18639;50.716;7.086;2023-04-10T00:42:39;100994.75;;;7.25;100.00
32131;BME280;18639;50.716;7.086;2023-04-10T00:45:05;101000.81;;;7.22;100.00
32131;BME280;18639;50.716;7.086;2023-04-10T00:47:30;100986.47;;;7.16;100.00
32131;BME280;18639;50.716;7.086;2023-04-10T00:49:56;100970.78;;;7.02;100.00
32131;BME280;18639;50.716;7.086;2023-04-10T00:52:23;101009.19;;;7.27;100.00
32131;BME280;18639;50.716;7.086;2023-04-10T00:54:50;101003.41;;;7.22;100.00
32131;BME280;18639;50.716;7.086;2023-04-10T00:57:16;101014.31;;;7.27;100.00
32131;BME280;18639;50.716;7.086;2023-04-10T00:59:41;100978.38;;;7.05;100.00
32131;BME280;18639;50.716;7.086;2023-04-10T01:02:07;100964.81;;;7.02;100.00
32131;BME280;18639;50.716;7.086;2023-04-10T01:04:33;100994.94;;;7.20;100.00
32131;BME280;18639;50.716;7.086;2023-04-10T01:07:09;101002.69;;;7.18;100.00
32131;BME280;18639;50.716;7.086;2023-04-10T01:15:08;101004.56;;;7.15;100.00
32131;BME280;18639;50.716;7.086;2023-04-10T01:18:03;101005.50;;;7.12;100.00
32131;BME280;18639;50.716;7.086;2023-04-10T01:20:42;100987.00;;;7.04;100.00
32131;BME280;18639;50.716;7.086;2023-04-10T01:25:58;100964.34;;;6.92;100.00
32131;BME280;18639;50.716;7.086;2023-04-10T01:29:00;100980.19;;;7.03;100.00
32131;BME280;18639;50.716;7.086;2023-04-10T01:31:38;100976.97;;;6.98;100.00
32131;BME280;18639;50.716;7.086;2023-04-10T01:34:20;100965.00;;;6.97;100.00
32131;BME280;18639;50.716;7.086;2023-04-10T01:37:01;100968.88;;;7.07;100.00
32131;BME280;18639;50.716;7.086;2023-04-10T01:39:28;100969.66;;;7.09;100.00
32131;BME280;18639;50.716;7.086;2023-04-10T01:41:54;100932.50;;;6.96;100.00
32131;BME280;18639;50.716;7.086;2023-04-10T01:44:28;100946.28;;;7.15;100.00
32131;BME280;18639;50.716;7.086;2023-04-10T01:46:54;100951.78;;;7.27;100.00
32131;BME280;18639;50.716;7.086;2023-04-10T01:49:22;100937.22;;;7.27;100.00
32131;BME280;18639;50.716;7.086;2023-04-10T01:51:50;100930.16;;;7.32;100.00
32131;BME280;18639;50.716;7.086;2023-04-10T01:54:16;100939.66;;;7.50;100.00
32131;BME280;18639;50.716;7.086;2023-04-10T01:56:42;100896.41;;;7.40;100.00
32131;BME280;18639;50.716;7.086;2023-04-10T01:59:07;100936.97;;;7.74;100.00
32131;BME280;18639;50.716;7.086;2023-04-10T02:01:33;100916.59;;;7.69;99.22
32131;BME280;18639;50.716;7.086;2023-04-10T02:03:58;100940.06;;;8.00;99.47
32131;BME280;18639;50.716;7.086;2023-04-10T02:06:50;100943.91;;;8.11;96.32
32131;BME280;18639;50.716;7.086;2023-04-10T02:09:25;100916.44;;;8.11;96.28
32131;BME280;18639;50.716;7.086;2023-04-10T02:12:04;100909.31;;;8.16;93.27
32131;BME280;18639;50.716;7.086;2023-04-10T02:14:31;100912.44;;;8.23;91.64
32131;BME280;18639;50.716;7.086;2023-04-10T02:16:58;100922.28;;;8.33;92.73
32131;BME280;18639;50.716;7.086;2023-04-10T02:19:26;100923.94;;;8.34;93.27
32131;BME280;18639;50.716;7.086;2023-04-10T02:21:53;100912.81;;;8.34;93.25
32131;BME280;18639;50.716;7.086;2023-04-10T02:24:19;100912.53;;;8.40;92.34
32131;BME280;18639;50.716;7.086;2023-04-10T02:26:50;100878.28;;;8.19;94.69
32131;BME280;18639;50.716;7.086;2023-04-10T02:29:16;100897.50;;;8.31;91.74
32131;BME280;18639;50.716;7.086;2023-04-10T02:31:42;100904.97;;;8.37;93.72
32131;BME280;18639;50.716;7.086;2023-04-10T02:34:08;100909.50;;;8.32;90.66
32131;BME280;18639;50.716;7.086;2023-04-10T02:36:35;100911.16;;;8.33;93.03
32131;BME280;18639;50.716;7.086;2023-04-10T02:39:00;100898.53;;;8.27;93.09
32131;BME280;18639;50.716;7.086;2023-04-10T02:41:25;100885.25;;;8.17;93.00
32131;BME280;18639;50.716;7.086;2023-04-10T02:43:50;100876.34;;;8.06;94.26
32131;BME280;18639;50.716;7.086;2023-04-10T02:46:16;100899.56;;;8.23;90.92
32131;BME280;18639;50.716;7.086;2023-04-10T02:48:41;100906.81;;;8.33;92.26
32131;BME280;18639;50.716;7.086;2023-04-10T02:51:07;100912.97;;;8.31;94.47
32131;BME280;18639;50.716;7.086;2023-04-10T02:53:32;100913.97;;;8.27;96.08
32131;BME280;18639;50.716;7.086;2023-04-10T02:55:58;100898.63;;;8.07;98.47
32131;BME280;18639;50.716;7.086;2023-04-10T02:58:23;100923.94;;;8.16;99.31
32131;BME280;18639;50.716;7.086;2023-04-10T03:00:49;100921.41;;;8.14;100.00
32131;BME280;18639;50.716;7.086;2023-04-10T03:03:15;100900.13;;;7.92;100.00
32131;BME280;18639;50.716;7.086;2023-04-10T03:05:41;100916.53;;;7.89;100.00
32131;BME280;18639;50.716;7.086;2023-04-10T03:08:06;100909.22;;;7.80;100.00
32131;BME280;18639;50.716;7.086;2023-04-10T03:10:31;100904.53;;;7.70;100.00
32131;BME280;18639;50.716;7.086;2023-04-10T03:12:57;100880.59;;;7.49;100.00
32131;BME280;18639;50.716;7.086;2023-04-10T03:15:22;100890.88;;;7.49;100.00
32131;BME280;18639;50.716;7.086;2023-04-10T03:17:47;100903.09;;;7.44;100.00
32131;BME280;18639;50.716;7.086;2023-04-10T03:20:12;100890.00;;;7.30;100.00
32131;BME280;18639;50.716;7.086;2023-04-10T03:22:38;100888.31;;;7.29;100.00
32131;BME280;18639;50.716;7.086;2023-04-10T03:25:04;100898.66;;;7.27;100.00
32131;BME280;18639;50.716;7.086;2023-04-10T03:27:29;100902.31;;;7.22;100.00
32131;BME280;18639;50.716;7.086;2023-04-10T03:29:57;100894.09;;;7.13;100.00
32131;BME280;18639;50.716;7.086;2023-04-10T03:32:22;100882.50;;;7.05;100.00
32131;BME280;18639;50.716;7.086;2023-04-10T03:34:48;100878.44;;;6.99;100.00
32131;BME280;18639;50.716;7.086;2023-04-10T03:37:13;100874.19;;;6.98;100.00
32131;BME280;18639;50.716;7.086;2023-04-10T03:39:38;100870.19;;;6.91;100.00
32131;BME280;18639;50.716;7.086;2023-04-10T03:42:04;100878.59;;;6.95;100.00
32131;BME280;18639;50.716;7.086;2023-04-10T03:44:29;100878.78;;;6.90;100.00
32131;BME280;18639;50.716;7.086;2023-04-10T03:46:54;100879.63;;;6.91;100.00
32131;BME280;18639;50.716;7.086;2023-04-10T03:49:20;100827.75;;;6.62;100.00
32131;BME280;18639;50.716;7.086;2023-04-10T03:51:45;100831.91;;;6.65;100.00
32131;BME280;18639;50.716;7.086;2023-04-10T03:54:10;100877.50;;;6.80;100.00
32131;BME280;18639;50.716;7.086;2023-04-10T03:56:36;100788.41;;;6.40;100.00
32131;BME280;18639;50.716;7.086;2023-04-10T03:59:01;100866.47;;;6.78;100.00
32131;BME280;18639;50.716;7.086;2023-04-10T04:01:26;100833.53;;;6.46;100.00
32131;BME280;18639;50.716;7.086;2023-04-10T04:03:52;100863.25;;;6.73;100.00
32131;BME280;18639;50.716;7.086;2023-04-10T04:06:17;100846.53;;;6.63;100.00
32131;BME280;18639;50.716;7.086;2023-04-10T04:08:42;100817.94;;;6.50;100.00
32131;BME280;18639;50.716;7.086;2023-04-10T04:11:07;100834.47;;;6.65;100.00
32131;BME280;18639;50.716;7.086;2023-04-10T04:13:33;100843.50;;;6.73;100.00
32131;BME280;18639;50.716;7.086;2023-04-10T04:15:58;100781.56;;;6.41;100.00
32131;BME280;18639;50.716;7.086;2023-04-10T04:18:23;100832.53;;;6.70;100.00
32131;BME280;18639;50.716;7.086;2023-04-10T04:20:48;100839.69;;;6.84;100.00
32131;BME280;18639;50.716;7.086;2023-04-10T04:23:14;100837.25;;;6.81;100.00
32131;BME280;18639;50.716;7.086;2023-04-10T04:25:39;100825.00;;;6.87;100.00
32131;BME280;18639;50.716;7.086;2023-04-10T04:28:04;100840.00;;;6.96;100.00
32131;BME280;18639;50.716;7.086;2023-04-10T04:30:30;100833.97;;;6.97;100.00
32131;BME280;18639;50.716;7.086;2023-04-10T04:32:55;100834.63;;;7.02;100.00
32131;BME280;18639;50.716;7.086;2023-04-10T04:35:20;100826.91;;;7.02;100.00
32131;BME280;18639;50.716;7.086;2023-04-10T04:37:46;100831.91;;;7.05;100.00
32131;BME280;18639;50.716;7.086;2023-04-10T04:40:11;100833.47;;;7.09;100.00
32131;BME280;18639;50.716;7.086;2023-04-10T04:42:36;100840.44;;;7.06;100.00
32131;BME280;18639;50.716;7.086;2023-04-10T04:45:02;100849.72;;;7.10;100.00
32131;BME280;18639;50.716;7.086;2023-04-10T04:47:27;100854.97;;;7.07;100.00
32131;BME280;18639;50.716;7.086;2023-04-10T04:49:52;100848.75;;;7.12;100.00
32131;BME280;18639;50.716;7.086;2023-04-10T04:52:18;100842.84;;;7.10;100.00
32131;BME280;18639;50.716;7.086;2023-04-10T04:54:43;100843.81;;;7.08;100.00
32131;BME280;18639;50.716;7.086;2023-04-10T04:57:08;100831.16;;;7.03;100.00
32131;BME280;18639;50.716;7.086;2023-04-10T04:59:34;100833.34;;;6.92;100.00
32131;BME280;18639;50.716;7.086;2023-04-10T05:01:59;100852.78;;;7.18;100.00
32131;BME280;18639;50.716;7.086;2023-04-10T05:04:24;100845.34;;;7.12;100.00
32131;BME280;18639;50.716;7.086;2023-04-10T05:06:50;100839.50;;;7.08;100.00
32131;BME280;18639;50.716;7.086;2023-04-10T05:09:15;100829.63;;;6.99;100.00
32131;BME280;18639;50.716;7.086;2023-04-10T05:11:40;100842.56;;;7.16;100.00
32131;BME280;18639;50.716;7.086;2023-04-10T05:14:06;100840.63;;;7.22;100.00
32131;BME280;18639;50.716;7.086;2023-04-10T05:16:31;100847.72;;;7.37;98.41
32131;BME280;18639;50.716;7.086;2023-04-10T05:18:56;100812.56;;;7.17;99.10
32131;BME280;18639;50.716;7.086;2023-04-10T05:21:22;100843.56;;;7.53;96.21
32131;BME280;18639;50.716;7.086;2023-04-10T05:23:47;100838.03;;;7.62;93.92
32131;BME280;18639;50.716;7.086;2023-04-10T05:26:12;100830.25;;;7.64;94.18
32131;BME280;18639;50.716;7.086;2023-04-10T05:28:38;100816.59;;;7.61;91.97
32131;BME280;18639;50.716;7.086;2023-04-10T05:31:03;100836.00;;;7.87;89.60
32131;BME280;18639;50.716;7.086;2023-04-10T05:33:28;100820.28;;;7.93;91.12
32131;BME280;18639;50.716;7.086;2023-04-10T05:35:54;100821.69;;;8.00;92.69
32131;BME280;18639;50.716;7.086;2023-04-10T05:38:20;100838.09;;;8.17;92.94
32131;BME280;18639;50.716;7.086;2023-04-10T05:40:51;100823.47;;;8.17;92.59
32131;BME280;18639;50.716;7.086;2023-04-10T05:43:16;100839.19;;;8.30;88.89
32131;BME280;18639;50.716;7.086;2023-04-10T05:45:45;100825.69;;;8.25;88.84
32131;BME280;18639;50.716;7.086;2023-04-10T05:48:10;100830.41;;;8.34;89.56
32131;BME280;18639;50.716;7.086;2023-04-10T05:50:35;100843.47;;;8.48;85.68
32131;BME280;18639;50.716;7.086;2023-04-10T05:53:00;100851.53;;;8.59;87.84
32131;BME280;18639;50.716;7.086;2023-04-10T05:55:26;100853.38;;;8.74;87.18
32131;BME280;18639;50.716;7.086;2023-04-10T05:57:51;100862.44;;;8.81;85.17
32131;BME280;18639;50.716;7.086;2023-04-10T06:00:16;100820.47;;;8.62;83.43
32131;BME280;18639;50.716;7.086;2023-04-10T06:02:42;100861.25;;;9.06;83.29
32131;BME280;18639;50.716;7.086;2023-04-10T06:05:07;100827.91;;;8.85;84.89
32131;BME280;18639;50.716;7.086;2023-04-10T06:07:33;100809.56;;;8.92;83.42
32131;BME280;18639;50.716;7.086;2023-04-10T06:09:58;100819.34;;;9.02;81.71
32131;BME280;18639;50.716;7.086;2023-04-10T06:12:23;100847.59;;;9.21;79.32
32131;BME280;18639;50.716;7.086;2023-04-10T06:14:48;100855.06;;;9.25;78.70
32131;BME280;18639;50.716;7.086;2023-04-10T06:17:14;100855.91;;;9.26;78.52
32131;BME280;18639;50.716;7.086;2023-04-10T06:19:39;100847.28;;;9.27;77.89
32131;BME280;18639;50.716;7.086;2023-04-10T06:22:05;100845.84;;;9.21;77.44
32131;BME280;18639;50.716;7.086;2023-04-10T06:24:30;100828.09;;;9.15;76.99
32131;BME280;18639;50.716;7.086;2023-04-10T06:26:56;100833.63;;;9.25;79.57
32131;BME280;18639;50.716;7.086;2023-04-10T06:29:22;100825.75;;;9.28;79.87
32131;BME280;18639;50.716;7.086;2023-04-10T06:31:47;100828.84;;;9.35;77.63
32131;BME280;18639;50.716;7.086;2023-04-10T06:34:12;100831.06;;;9.41;78.04
32131;BME280;18639;50.716;7.086;2023-04-10T06:36:38;100824.94;;;9.43;76.03
32131;BME280;18639;50.716;7.086;2023-04-10T06:39:03;100834.09;;;9.49;78.03
32131;BME280;18639;50.716;7.086;2023-04-10T06:41:28;100819.78;;;9.43;76.45
32131;BME280;18639;50.716;7.086;2023-04-10T06:43:54;100829.47;;;9.55;74.45
32131;BME280;18639;50.716;7.086;2023-04-10T06:46:19;100816.56;;;9.55;76.07
32131;BME280;18639;50.716;7.086;2023-04-10T06:48:45;100795.75;;;9.58;78.09
32131;BME280;18639;50.716;7.086;2023-04-10T06:51:10;100827.75;;;9.71;73.92
32131;BME280;18639;50.716;7.086;2023-04-10T06:53:36;100822.00;;;9.82;75.88
32131;BME280;18639;50.716;7.086;2023-04-10T06:56:02;100809.75;;;9.86;72.11
32131;BME280;18639;50.716;7.086;2023-04-10T06:58:28;100845.13;;;10.15;71.50
32131;BME280;18639;50.716;7.086;2023-04-10T07:00:57;100838.69;;;10.24;71.30
32131;BME280;18639;50.716;7.086;2023-04-10T07:03:22;100842.16;;;10.38;68.54
32131;BME280;18639;50.716;7.086;2023-04-10T07:05:48;100825.16;;;10.50;70.39
32131;BME280;18639;50.716;7.086;2023-04-10T07:08:14;100809.84;;;10.47;67.77
32131;BME280;18639;50.716;7.086;2023-04-10T07:10:40;100839.44;;;10.71;69.19
32131;BME280;18639;50.716;7.086;2023-04-10T07:13:05;100844.63;;;10.85;68.17
32131;BME280;18639;50.716;7.086;2023-04-10T07:15:31;100837.56;;;10.89;66.80
32131;BME280;18639;50.716;7.086;2023-04-10T07:17:56;100838.00;;;10.95;65.54
32131;BME280;18639;50.716;7.086;2023-04-10T07:20:21;100830.38;;;11.08;66.60
32131;BME280;18639;50.716;7.086;2023-04-10T07:36:38;100763.88;;;11.53;61.76
32131;BME280;18639;50.716;7.086;2023-04-10T07:39:03;100777.31;;;11.86;62.05
32131;BME280;18639;50.716;7.086;2023-04-10T07:41:44;100773.03;;;12.26;60.98
32131;BME280;18639;50.716;7.086;2023-04-10T07:46:57;100779.97;;;12.65;58.69
32131;BME280;18639;50.716;7.086;2023-04-10T07:49:23;100808.63;;;13.01;58.82
32131;BME280;18639;50.716;7.086;2023-04-10T07:51:49;100772.19;;;12.90;59.39
32131;BME280;18639;50.716;7.086;2023-04-10T07:54:14;100770.63;;;12.75;57.15
32131;BME280;18639;50.716;7.086;2023-04-10T07:56:39;100782.59;;;13.03;56.81
32131;BME280;18639;50.716;7.086;2023-04-10T07:59:05;100795.38;;;13.19;56.93
32131;BME280;18639;50.716;7.086;2023-04-10T08:01:30;100728.75;;;12.81;59.72
32131;BME280;18639;50.716;7.086;2023-04-10T08:03:55;100782.81;;;13.13;58.16
32131;BME280;18639;50.716;7.086;2023-04-10T08:06:21;100768.59;;;13.18;56.81
32131;BME280;18639;50.716;7.086;2023-04-10T08:08:46;100785.38;;;13.38;57.01
32131;BME280;18639;50.716;7.086;2023-04-10T08:11:26;100792.34;;;13.50;56.36
32131;BME280;18639;50.716;7.086;2023-04-10T08:13:53;100779.22;;;13.64;56.19
32131;BME280;18639;50.716;7.086;2023-04-10T08:16:23;100766.19;;;13.77;57.19
32131;BME280;18639;50.716;7.086;2023-04-10T08:18:49;100777.53;;;14.00;56.00
32131;BME280;18639;50.716;7.086;2023-04-10T08:21:14;100758.91;;;14.06;54.54
32131;BME280;18639;50.716;7.086;2023-04-10T08:23:39;100769.50;;;14.26;54.97
32131;BME280;18639;50.716;7.086;2023-04-10T08:26:05;100764.69;;;14.33;54.23
32131;BME280;18639;50.716;7.086;2023-04-10T08:28:30;100760.75;;;14.40;53.33
32131;BME280;18639;50.716;7.086;2023-04-10T08:30:57;100769.16;;;14.55;52.24
32131;BME280;18639;50.716;7.086;2023-04-10T08:33:22;100759.06;;;14.74;53.09
32131;BME280;18639;50.716;7.086;2023-04-10T08:35:47;100747.63;;;14.99;52.28
32131;BME280;18639;50.716;7.086;2023-04-10T08:38:15;100763.25;;;15.21;49.79
32131;BME280;18639;50.716;7.086;2023-04-10T08:40:41;100729.88;;;15.26;50.31
32131;BME280;18639;50.716;7.086;2023-04-10T08:43:08;100754.94;;;15.61;49.63
32131;BME280;18639;50.716;7.086;2023-04-10T08:45:33;100699.94;;;15.21;47.72
32131;BME280;18639;50.716;7.086;2023-04-10T08:48:01;100747.13;;;15.72;48.19
32131;BME280;18639;50.716;7.086;2023-04-10T08:50:28;100726.75;;;15.66;47.58
32131;BME280;18639;50.716;7.086;2023-04-10T08:52:55;100744.53;;;15.61;47.29
32131;BME280;18639;50.716;7.086;2023-04-10T08:55:24;100732.13;;;15.31;47.30
32131;BME280;18639;50.716;7.086;2023-04-10T08:57:50;100731.00;;;15.78;48.46
32131;BME280;18639;50.716;7.086;2023-04-10T09:00:16;100683.53;;;15.74;48.16
32131;BME280;18639;50.716;7.086;2023-04-10T09:02:45;100722.72;;;16.05;45.86
32131;BME280;18639;50.716;7.086;2023-04-10T09:05:29;100678.63;;;16.33;46.36
32131;BME280;18639;50.716;7.086;2023-04-10T09:19:06;100678.56;;;16.96;43.76
32131;BME280;18639;50.716;7.086;2023-04-10T09:24:07;100668.16;;;17.15;44.66
32131;BME280;18639;50.716;7.086;2023-04-10T09:26:32;100666.28;;;17.26;43.97
32131;BME280;18639;50.716;7.086;2023-04-10T09:29:00;100677.75;;;17.54;45.06
32131;BME280;18639;50.716;7.086;2023-04-10T09:41:51;100662.81;;;18.14;43.49
32131;BME280;18639;50.716;7.086;2023-04-10T09:44:37;100650.16;;;17.81;43.21
32131;BME280;18639;50.716;7.086;2023-04-10T09:50:04;100670.25;;;17.71;45.17
32131;BME280;18639;50.716;7.086;2023-04-10T09:52:31;100666.38;;;17.75;43.01
32131;BME280;18639;50.716;7.086;2023-04-10T09:55:01;100665.56;;;17.93;43.60
32131;BME280;18639;50.716;7.086;2023-04-10T09:57:30;100643.13;;;18.10;42.57
32131;BME280;18639;50.716;7.086;2023-04-10T10:00:03;100652.06;;;18.07;42.55
32131;BME280;18639;50.716;7.086;2023-04-10T10:02:30;100645.81;;;18.28;42.39
32131;BME280;18639;50.716;7.086;2023-04-10T10:04:59;100650.63;;;18.42;44.44
32131;BME280;18639;50.716;7.086;2023-04-10T10:07:25;100626.75;;;17.79;41.47
32131;BME280;18639;50.716;7.086;2023-04-10T10:09:52;100644.78;;;17.92;42.18
32131;BME280;18639;50.716;7.086;2023-04-10T10:12:39;100638.41;;;18.23;43.61
32131;BME280;18639;50.716;7.086;2023-04-10T10:15:43;100639.03;;;18.54;42.83
32131;BME280;18639;50.716;7.086;2023-04-10T10:20:43;100626.97;;;18.24;42.41
32131;BME280;18639;50.716;7.086;2023-04-10T10:23:09;100609.94;;;18.11;40.57
32131;BME280;18639;50.716;7.086;2023-04-10T10:25:35;100613.16;;;18.41;42.16
32131;BME280;18639;50.716;7.086;2023-04-10T10:28:03;100622.63;;;18.05;40.15
32131;BME280;18639;50.716;7.086;2023-04-10T10:30:31;100615.25;;;18.28;40.57
32131;BME280;18639;50.716;7.086;2023-04-10T10:32:58;100619.44;;;18.68;40.84
32131;BME280;18639;50.716;7.086;2023-04-10T10:35:29;100608.41;;;19.19;39.67
32131;BME280;18639;50.716;7.086;2023-04-10T10:37:57;100586.50;;;19.38;37.44
32131;BME280;18639;50.716;7.086;2023-04-10T10:40:28;100583.31;;;19.34;38.05
32131;BME280;18639;50.716;7.086;2023-04-10T10:46:02;100564.19;;;19.51;38.84
32131;BME280;18639;50.716;7.086;2023-04-10T10:48:28;100564.50;;;19.48;39.49
32131;BME280;18639;50.716;7.086;2023-04-10T10:50:55;100552.63;;;19.09;39.03
32131;BME280;18639;50.716;7.086;2023-04-10T10:55:58;100529.47;;;18.22;40.36
32131;BME280;18639;50.716;7.086;2023-04-10T10:58:51;100539.50;;;18.36;39.15
32131;BME280;18639;50.716;7.086;2023-04-10T11:01:18;100527.50;;;18.34;40.07
32131;BME280;18639;50.716;7.086;2023-04-10T11:03:44;100509.34;;;18.05;38.49
32131;BME280;18639;50.716;7.086;2023-04-10T11:06:20;100510.72;;;17.99;38.71
32131;BME280;18639;50.716;7.086;2023-04-10T11:09:05;100496.28;;;17.86;38.26
32131;BME280;18639;50.716;7.086;2023-04-10T11:11:56;100480.78;;;17.75;39.54
32131;BME280;18639;50.716;7.086;2023-04-10T11:14:23;100485.31;;;17.53;40.02
32131;BME280;18639;50.716;7.086;2023-04-10T11:16:48;100476.56;;;17.35;39.20
32131;BME280;18639;50.716;7.086;2023-04-10T11:19:14;100486.03;;;17.65;41.24
32131;BME280;18639;50.716;7.086;2023-04-10T11:24:26;100475.25;;;17.87;40.59
32131;BME280;18639;50.716;7.086;2023-04-10T11:26:52;100463.59;;;17.72;38.73
32131;BME280;18639;50.716;7.086;2023-04-10T11:31:59;100463.03;;;17.78;39.80
32131;BME280;18639;50.716;7.086;2023-04-10T11:34:25;100450.78;;;17.79;39.30
32131;BME280;18639;50.716;7.086;2023-04-10T11:36:58;100441.50;;;17.94;38.80
32131;BME280;18639;50.716;7.086;2023-04-10T11:39:25;100419.03;;;18.01;38.70
32131;BME280;18639;50.716;7.086;2023-04-10T11:41:52;100412.31;;;17.98;37.99
32131;BME280;18639;50.716;7.086;2023-04-10T11:44:27;100439.81;;;18.02;36.43
32131;BME280;18639;50.716;7.086;2023-04-10T11:46:53;100452.28;;;17.81;36.85
32131;BME280;18639;50.716;7.086;2023-04-10T11:49:24;100442.78;;;17.80;35.97
32131;BME280;18639;50.716;7.086;2023-04-10T11:51:50;100425.34;;;17.71;37.25
32131;BME280;18639;50.716;7.086;2023-04-10T11:54:18;100438.81;;;17.76;37.11
32131;BME280;18639;50.716;7.086;2023-04-10T11:56:55;100425.66;;;17.68;35.87
32131;BME280;18639;50.716;7.086;2023-04-10T11:59:21;100431.00;;;17.57;35.28
32131;BME280;18639;50.716;7.086;2023-04-10T12:01:49;100436.41;;;17.46;35.95
32131;BME280;18639;50.716;7.086;2023-04-10T12:04:19;100430.88;;;17.49;36.71
32131;BME280;18639;50.716;7.086;2023-04-10T12:06:54;100409.03;;;17.40;36.16
32131;BME280;18639;50.716;7.086;2023-04-10T12:09:20;100392.00;;;17.26;35.55
32131;BME280;18639;50.716;7.086;2023-04-10T12:11:55;100416.97;;;17.48;36.77
32131;BME280;18639;50.716;7.086;2023-04-10T12:14:22;100418.78;;;17.38;36.65
32131;BME280;18639;50.716;7.086;2023-04-10T12:16:49;100416.97;;;17.48;38.81
32131;BME280;18639;50.716;7.086;2023-04-10T12:19:15;100422.06;;;17.50;36.51
32131;BME280;18639;50.716;7.086;2023-04-10T12:21:42;100389.59;;;17.52;38.32
32131;BME280;18639;50.716;7.086;2023-04-10T12:24:08;100407.63;;;17.55;37.91
32131;BME280;18639;50.716;7.086;2023-04-10T12:26:34;100345.56;;;17.20;36.83
32131;BME280;18639;50.716;7.086;2023-04-10T12:28:59;100392.63;;;17.57;38.18
32131;BME280;18639;50.716;7.086;2023-04-10T12:31:26;100379.00;;;17.73;38.76
32131;BME280;18639;50.716;7.086;2023-04-10T12:33:52;100318.69;;;17.38;37.69
32131;BME280;18639;50.716;7.086;2023-04-10T12:36:22;100383.91;;;17.76;37.95
32131;BME280;18639;50.716;7.086;2023-04-10T12:38:48;100371.25;;;17.81;37.14
32131;BME280;18639;50.716;7.086;2023-04-10T12:41:22;100372.59;;;17.85;36.58
32131;BME280;18639;50.716;7.086;2023-04-10T12:43:49;100365.69;;;17.84;37.34
32131;BME280;18639;50.716;7.086;2023-04-10T12:46:41;100356.72;;;17.96;38.18
32131;BME280;18639;50.716;7.086;2023-04-10T12:49:12;100372.66;;;18.03;38.92
32131;BME280;18639;50.716;7.086;2023-04-10T12:51:49;100353.25;;;17.96;38.41
32131;BME280;18639;50.716;7.086;2023-04-10T12:54:32;100332.72;;;17.83;38.45
32131;BME280;18639;50.716;7.086;2023-04-10T12:56:58;100354.41;;;17.93;37.69
32131;BME280;18639;50.716;7.086;2023-04-10T12:59:24;100340.56;;;17.83;37.96
32131;BME280;18639;50.716;7.086;2023-04-10T13:01:51;100333.66;;;17.82;38.40
32131;BME280;18639;50.716;7.086;2023-04-10T13:04:16;100283.91;;;17.47;38.24
32131;BME280;18639;50.716;7.086;2023-04-10T13:06:44;100354.84;;;17.79;39.63
32131;BME280;18639;50.716;7.086;2023-04-10T13:09:11;100349.94;;;17.76;40.37
32131;BME280;18639;50.716;7.086;2023-04-10T13:11:36;100339.53;;;17.66;39.16
32131;BME280;18639;50.716;7.086;2023-04-10T13:14:01;100249.50;;;17.14;38.64
32131;BME280;18639;50.716;7.086;2023-04-10T13:16:27;100320.56;;;17.55;38.20
32131;BME280;18639;50.716;7.086;2023-04-10T13:18:52;100278.84;;;17.36;39.31
32131;BME280;18639;50.716;7.086;2023-04-10T13:21:18;100281.09;;;17.48;39.70
32131;BME280;18639;50.716;7.086;2023-04-10T13:23:50;100307.03;;;17.69;40.63
32131;BME280;18639;50.716;7.086;2023-04-10T13:26:15;100298.22;;;17.70;39.70
32131;BME280;18639;50.716;7.086;2023-04-10T13:28:40;100240.19;;;17.39;39.17
32131;BME280;18639;50.716;7.086;2023-04-10T13:31:06;100319.06;;;17.89;38.33
32131;BME280;18639;50.716;7.086;2023-04-10T13:33:31;100272.84;;;17.80;38.93
32131;BME280;18639;50.716;7.086;2023-04-10T13:35:56;100281.84;;;17.95;38.56
32131;BME280;18639;50.716;7.086;2023-04-10T13:38:21;100293.28;;;18.12;39.16
32131;BME280;18639;50.716;7.086;2023-04-10T13:40:47;100257.44;;;18.04;39.51
32131;BME280;18639;50.716;7.086;2023-04-10T13:43:12;100246.59;;;17.99;38.30
32131;BME280;18639;50.716;7.086;2023-04-10T13:45:38;100260.19;;;18.21;39.24
32131;BME280;18639;50.716;7.086;2023-04-10T13:48:03;100239.28;;;18.21;38.90
32131;BME280;18639;50.716;7.086;2023-04-10T13:50:31;100196.50;;;18.12;38.59
32131;BME280;18639;50.716;7.086;2023-04-10T13:52:56;100222.78;;;18.46;39.00
32131;BME280;18639;50.716;7.086;2023-04-10T13:55:21;100213.59;;;18.42;39.64
32131;BME280;18639;50.716;7.086;2023-04-10T13:57:49;100159.59;;;18.15;38.93
32131;BME280;18639;50.716;7.086;2023-04-10T14:00:15;100218.66;;;18.61;38.48